Azuma Maru No.18 — JD2963 — position and weather

sailwx.info

Track history (hours):
 
Tides and Currents Weather Stations Pressure Air Temp Water Temp Dewpoint Dewpoint Depression Visibility Wind Speed Wind Dir Waves Ship Positions

Azuma Maru No.18

Last reported at 2018-May-30 11:48 UTC. Time now 2018-Jun-25 13:53 UTC.
Position N 34°57' E 139°27'.
Warning: this ship's position is 26 days out of date.

Length 105 m; draft 6.4 m.

Type: Tanker. MMSI: 431001096.

Date/timePositionNaut miles runAvg speedWind from/ knotsBaromVisibWave heightAir tempDewpointWater temp
2018-May-30 11:48N 34°57' E 139°27'413.5
2018-May-30 11:30N 34°60' E 139°30'714.1
2018-May-30 11:00N 35°04' E 139°37'713.5
2018-May-30 10:30N 35°08' E 139°43'713.7
2018-May-30 10:00N 35°15' E 139°46'612.5
2018-May-30 09:30N 35°20' E 139°42'712.8
2018-May-30 08:59N 35°26' E 139°46'713.7
2018-May-30 08:30N 35°30' E 139°53'4 0.3
2018-May-29 17:12N 35°32' E 139°58'213.1
2018-May-29 17:00N 35°31' E 139°55'815.1
2018-May-29 16:30N 35°26' E 139°48'713.5
2018-May-29 16:00N 35°20' E 139°44'612.4
2018-May-29 15:31N 35°14' E 139°47'714.4
2018-May-29 15:00N 35°07' E 139°46'714.1
2018-May-29 14:30N 35°01' E 139°40'815.1
2018-May-29 14:00N 34°57' E 139°33'  
2018-May-26 04:50N 33°26' E 135°09'  
Track history (hours):
 
Tides and Currents Weather Stations Pressure Air Temp Water Temp Dewpoint Dewpoint Depression Visibility Wind Speed Wind Dir Waves Ship Positions

Azuma Maru No.18

Last reported at 2018-May-30 11:48 UTC. Time now 2018-Jun-25 13:53 UTC.
Position N 34°57' E 139°27'.
Warning: this ship's position is 26 days out of date.

Length 105 m; draft 6.4 m.

Type: Tanker. MMSI: 431001096.

Date/timePositionNaut miles runAvg speedWind from/ knotsBaromVisibWave heightAir tempDewpointWater temp
2018-May-30 11:48N 34°57' E 139°27'413.5
2018-May-30 11:30N 34°60' E 139°30'714.1
2018-May-30 11:00N 35°04' E 139°37'713.5
2018-May-30 10:30N 35°08' E 139°43'713.7
2018-May-30 10:00N 35°15' E 139°46'612.5
2018-May-30 09:30N 35°20' E 139°42'712.8
2018-May-30 08:59N 35°26' E 139°46'713.7
2018-May-30 08:30N 35°30' E 139°53'4 0.3
2018-May-29 17:12N 35°32' E 139°58'213.1
2018-May-29 17:00N 35°31' E 139°55'815.1
2018-May-29 16:30N 35°26' E 139°48'713.5
2018-May-29 16:00N 35°20' E 139°44'612.4
2018-May-29 15:31N 35°14' E 139°47'714.4
2018-May-29 15:00N 35°07' E 139°46'714.1
2018-May-29 14:30N 35°01' E 139°40'815.1
2018-May-29 14:00N 34°57' E 139°33'  
2018-May-26 04:50N 33°26' E 135°09'  

Dump ship's entire track history